Time;durP1;ratioP1;P1;durP2;ratioP2;P2;SDS_P1;SDS_P2;PMS_P1;PMS_P2;Temp;Humidity;BMP_temperature;BMP_pressure;BME280_temperature;BME280_humidity;BME280_pressure;Samples;Min_cycle;Max_cycle;Signal;HPM_P1;HPM_P2
2023/09/11 00:02:26;;;;;;;6.70;5.20;;;;;;;13.65;100.00;97597.70;110151;1245;69263;-64
2023/09/11 00:04:57;;;;;;;6.60;4.60;;;;;;;13.61;100.00;97594.88;110205;1245;68385;-66
2023/09/11 00:07:29;;;;;;;5.70;4.30;;;;;;;13.58;100.00;97593.89;110177;1243;58946;-66
2023/09/11 00:10:04;;;;;;;6.10;5.10;;;;;;;13.55;100.00;97596.30;110175;1241;58931;-66
2023/09/11 00:12:35;;;;;;;6.70;4.80;;;;;;;13.50;100.00;97592.13;110184;1244;70642;-65
2023/09/11 00:15:06;;;;;;;7.60;5.20;;;;;;;13.47;100.00;97595.49;110183;1244;68367;-65
2023/09/11 00:17:38;;;;;;;8.90;6.30;;;;;;;13.43;100.00;97593.19;110167;1245;69425;-64
2023/09/11 00:20:11;;;;;;;5.80;4.90;;;;;;;13.39;100.00;97587.39;110194;1241;58932;-64
2023/09/11 00:22:47;;;;;;;7.00;5.50;;;;;;;13.35;100.00;97586.67;110205;1245;58928;-65
2023/09/11 00:25:19;;;;;;;6.40;4.90;;;;;;;13.33;100.00;97589.30;110148;1241;70607;-65
2023/09/11 00:27:52;;;;;;;7.30;5.10;;;;;;;13.31;100.00;97580.55;110181;1245;69279;-65
2023/09/11 00:30:25;;;;;;;6.40;5.10;;;;;;;13.28;100.00;97582.26;110155;1243;69342;-65
2023/09/11 00:32:57;;;;;;;6.70;5.40;;;;;;;13.26;100.00;97584.28;110180;1241;58898;-65
2023/09/11 00:35:27;;;;;;;7.70;6.00;;;;;;;13.23;100.00;97581.49;110135;1241;58944;-65
2023/09/11 00:37:59;;;;;;;6.90;5.10;;;;;;;13.21;100.00;97581.79;110182;1241;69646;-65
2023/09/11 00:40:32;;;;;;;5.40;4.30;;;;;;;13.19;100.00;97581.45;110194;1241;69277;-65
2023/09/11 00:43:03;;;;;;;6.20;4.50;;;;;;;13.17;100.00;97580.10;110199;1241;69986;-65
2023/09/11 00:45:34;;;;;;;6.00;4.20;;;;;;;13.14;100.00;97580.33;110153;1245;58908;-65
2023/09/11 00:48:05;;;;;;;6.80;4.80;;;;;;;13.13;100.00;97580.91;110163;1245;58873;-65
2023/09/11 00:50:37;;;;;;;7.00;5.20;;;;;;;13.10;100.00;97578.35;110126;1241;70904;-65
2023/09/11 00:53:12;;;;;;;5.80;4.70;;;;;;;13.09;100.00;97581.05;110188;1244;69709;-65
2023/09/11 00:55:47;;;;;;;7.60;4.90;;;;;;;13.07;100.00;97578.81;110147;1241;68349;-66
2023/09/11 00:58:18;;;;;;;5.50;4.40;;;;;;;13.05;100.00;97578.63;110161;1244;58864;-64
2023/09/11 01:00:52;;;;;;;7.00;4.80;;;;;;;13.04;100.00;97575.91;110131;1245;58878;-64
2023/09/11 01:03:23;;;;;;;6.00;4.30;;;;;;;13.01;100.00;97579.41;110046;1251;69826;-64
2023/09/11 01:05:56;;;;;;;5.80;5.10;;;;;;;12.98;100.00;97577.70;110113;1245;68582;-64
2023/09/11 01:08:31;;;;;;;7.20;5.70;;;;;;;12.97;100.00;97577.30;109979;1241;68392;-65
2023/09/11 01:11:04;;;;;;;6.80;5.10;;;;;;;12.94;100.00;97579.79;110150;1241;58900;-65
2023/09/11 01:13:34;;;;;;;7.60;5.40;;;;;;;12.93;100.00;97577.78;110171;1243;59008;-65
2023/09/11 01:16:34;;;;;;;6.70;5.20;;;;;;;12.92;100.00;97580.79;110172;1241;69789;-65
2023/09/11 01:19:33;;;;;;;6.90;5.20;;;;;;;12.93;100.00;97580.27;110153;1244;68617;-65
2023/09/11 01:22:23;;;;;;;;;;;;;;;12.91;100.00;97584.96;109760;1241;68745;-65
2023/09/11 01:25:27;;;;;;;5.90;4.60;;;;;;;12.90;100.00;97584.17;110153;1241;58947;-65
2023/09/11 01:28:45;;;;;;;5.30;4.70;;;;;;;12.90;100.00;97588.50;110157;1241;58851;-65
2023/09/11 01:31:24;;;;;;;5.80;4.80;;;;;;;12.87;100.00;97586.52;110026;1241;69836;-65
2023/09/11 01:34:02;;;;;;;6.80;4.80;;;;;;;12.84;100.00;97586.38;109916;1246;69217;-65
2023/09/11 01:36:37;;;;;;;7.40;5.30;;;;;;;12.82;100.00;97583.61;110150;1245;69313;-65
2023/09/11 01:39:16;;;;;;;6.90;5.10;;;;;;;12.81;100.00;97584.19;110190;1244;59355;-64
2023/09/11 01:41:54;;;;;;;7.20;5.00;;;;;;;12.80;100.00;97580.98;110176;1241;59287;-65
2023/09/11 01:44:34;;;;;;;7.10;5.20;;;;;;;12.75;100.00;97584.08;109853;1241;69882;-65
2023/09/11 01:47:07;;;;;;;5.60;4.80;;;;;;;12.70;100.00;97586.28;110115;1244;69263;-66
2023/09/11 01:49:43;;;;;;;7.30;5.60;;;;;;;12.64;100.00;97578.84;109937;1245;68321;-64
2023/09/11 01:52:15;;;;;;;5.60;4.40;;;;;;;12.61;100.00;97577.17;110144;1244;58922;-64
2023/09/11 01:54:49;;;;;;;6.10;4.60;;;;;;;12.59;100.00;97576.29;110184;1241;59276;-64
2023/09/11 01:57:28;;;;;;;;;;;;;;;12.56;100.00;97572.46;110199;1241;70599;-64
2023/09/11 02:00:08;;;;;;;6.00;4.00;;;;;;;12.54;100.00;97572.13;109817;1245;69564;-65
2023/09/11 02:02:54;;;;;;;6.60;4.70;;;;;;;12.50;100.00;97569.82;110071;1241;68447;-64
2023/09/11 02:05:27;;;;;;;6.60;5.00;;;;;;;12.48;100.00;97572.80;110106;1244;58895;-65
2023/09/11 02:07:58;;;;;;;6.60;4.80;;;;;;;12.46;100.00;97567.50;110120;1245;58917;-65
2023/09/11 02:10:30;;;;;;;6.60;5.00;;;;;;;12.44;100.00;97571.66;110122;1244;70049;-65
2023/09/11 02:13:02;;;;;;;6.60;5.30;;;;;;;12.41;100.00;97565.42;109795;1245;69273;-65
2023/09/11 02:15:35;;;;;;;7.20;4.60;;;;;;;12.39;100.00;97570.16;110153;1244;69335;-65
2023/09/11 02:18:06;;;;;;;6.00;4.80;;;;;;;12.38;100.00;97569.32;110005;1245;58979;-65
2023/09/11 02:20:38;;;;;;;5.70;4.10;;;;;;;12.35;100.00;97568.88;110181;1241;58908;-65
2023/09/11 02:23:09;;;;;;;5.00;4.00;;;;;;;12.34;100.00;97571.39;109860;1245;69773;-65
2023/09/11 02:25:41;;;;;;;4.90;4.30;;;;;;;12.34;100.00;97569.84;110173;1241;68288;-65
2023/09/11 02:28:12;;;;;;;5.30;4.20;;;;;;;12.32;100.00;97570.36;110175;1241;69121;-65
2023/09/11 02:30:42;;;;;;;7.60;5.40;;;;;;;12.32;100.00;97570.05;110101;1241;58885;-65
2023/09/11 02:33:14;;;;;;;7.40;5.80;;;;;;;12.28;100.00;97569.65;109808;1245;58838;-65
2023/09/11 02:35:58;;;;;;;7.50;5.20;;;;;;;12.27;100.00;97565.15;110135;1244;69652;-63
2023/09/11 02:38:33;;;;;;;8.00;5.10;;;;;;;12.27;100.00;97563.57;109812;1245;68581;-66
2023/09/11 02:41:05;;;;;;;6.50;4.90;;;;;;;12.27;100.00;97564.84;109914;1245;69283;-65
2023/09/11 02:43:41;;;;;;;5.00;4.40;;;;;;;12.28;100.00;97565.23;110066;1245;58992;-64
2023/09/11 02:46:15;;;;;;;7.00;5.20;;;;;;;12.28;100.00;97565.61;109935;1245;58904;-64
2023/09/11 02:48:47;;;;;;;7.10;5.70;;;;;;;12.27;100.00;97563.90;110160;1241;70604;-65
2023/09/11 02:51:22;;;;;;;7.90;5.50;;;;;;;12.27;100.00;97563.07;110162;1244;69260;-65
2023/09/11 02:53:59;;;;;;;6.80;5.00;;;;;;;12.26;100.00;97559.64;110117;1243;69160;-64
2023/09/11 02:56:31;;;;;;;6.20;5.00;;;;;;;12.26;100.00;97563.34;110161;1245;60048;-64
2023/09/11 02:59:07;;;;;;;7.50;5.20;;;;;;;12.24;100.00;97559.94;110166;1241;58937;-64
2023/09/11 03:01:40;;;;;;;6.80;4.70;;;;;;;12.23;100.00;97558.58;109842;1246;70561;-64
2023/09/11 03:04:13;;;;;;;7.20;4.70;;;;;;;12.24;100.00;97556.61;109800;1248;69251;-65
2023/09/11 03:06:44;;;;;;;5.80;4.50;;;;;;;12.23;100.00;97559.32;110138;1243;69128;-63
2023/09/11 03:09:14;;;;;;;5.80;4.70;;;;;;;12.21;100.00;97556.69;109860;1241;58913;-65
2023/09/11 03:11:46;;;;;;;5.90;4.10;;;;;;;12.18;100.00;97556.34;110137;1243;59002;-65
2023/09/11 03:14:21;;;;;;;5.30;4.30;;;;;;;12.13;100.00;97555.90;110160;1245;69215;-65
2023/09/11 03:16:52;;;;;;;5.50;4.30;;;;;;;12.08;100.00;97554.77;110152;1245;68062;-64
2023/09/11 03:19:25;;;;;;;5.00;4.40;;;;;;;12.04;100.00;97553.99;110006;1245;68516;-65
2023/09/11 03:21:55;;;;;;;6.10;4.70;;;;;;;12.01;100.00;97554.77;109805;1245;58952;-65
2023/09/11 03:24:26;;;;;;;7.50;4.70;;;;;;;11.98;100.00;97557.77;110150;1244;58878;-65
2023/09/11 03:26:57;;;;;;;5.90;5.00;;;;;;;11.97;100.00;97557.82;109776;1241;69711;-65
2023/09/11 03:29:30;;;;;;;6.10;4.90;;;;;;;11.96;100.00;97559.67;110138;1245;69359;-65
2023/09/11 03:32:03;;;;;;;5.50;4.70;;;;;;;11.91;100.00;97553.41;109804;1245;69148;-65
2023/09/11 03:34:34;;;;;;;5.20;4.20;;;;;;;11.86;100.00;97558.13;109879;1241;58954;-65
2023/09/11 03:37:04;;;;;;;7.90;5.20;;;;;;;11.81;100.00;97557.98;110114;1245;58827;-65
2023/09/11 03:39:34;;;;;;;6.70;4.90;;;;;;;11.75;100.00;97555.95;109877;1241;70499;-65
2023/09/11 03:42:06;;;;;;;5.90;4.20;;;;;;;11.69;100.00;97558.01;109874;1243;69332;-65
2023/09/11 03:44:36;;;;;;;5.90;4.40;;;;;;;11.62;100.00;97555.39;110146;1243;68593;-64
2023/09/11 03:47:07;;;;;;;5.30;4.50;;;;;;;11.56;100.00;97557.04;109813;1245;58943;-65
2023/09/11 03:49:38;;;;;;;8.60;4.50;;;;;;;11.52;100.00;97563.09;110135;1243;58843;-65
2023/09/11 03:52:08;;;;;;;5.00;4.30;;;;;;;11.50;100.00;97560.98;109843;1241;70509;-65
2023/09/11 03:54:38;;;;;;;5.30;4.40;;;;;;;11.48;100.00;97562.34;110149;1245;69676;-65
2023/09/11 03:57:09;;;;;;;5.30;4.30;;;;;;;11.47;100.00;97564.88;109961;1245;69905;-65
2023/09/11 03:59:39;;;;;;;6.20;4.60;;;;;;;11.47;100.00;97561.16;109972;1244;58938;-65
2023/09/11 04:02:10;;;;;;;7.20;5.00;;;;;;;11.53;100.00;97565.46;110130;1244;58870;-66
2023/09/11 04:04:40;;;;;;;7.70;6.00;;;;;;;11.58;100.00;97562.28;110077;1244;71243;-65
2023/09/11 04:07:10;;;;;;;;;;;;;;;11.63;100.00;97562.99;109924;1244;69113;-65
2023/09/11 04:09:40;;;;;;;7.30;5.30;;;;;;;11.69;100.00;97555.91;109849;1245;69131;-65
2023/09/11 04:12:14;;;;;;;6.80;5.20;;;;;;;11.72;100.00;97558.25;110082;1247;58874;-68
2023/09/11 04:14:45;;;;;;;8.20;6.10;;;;;;;11.81;100.00;97556.23;110122;1245;59338;-65
2023/09/11 04:17:14;;;;;;;;;;;;;;;11.94;100.00;97555.27;110137;1244;69770;-65
2023/09/11 04:19:46;;;;;;;7.90;6.50;;;;;;;12.01;100.00;97559.95;110102;1244;69239;-65
2023/09/11 04:22:17;;;;;;;8.80;6.30;;;;;;;12.11;100.00;97557.63;110094;1245;69121;-65
2023/09/11 04:24:48;;;;;;;6.80;6.00;;;;;;;12.21;100.00;97560.50;110104;1245;58901;-65
2023/09/11 04:27:17;;;;;;;6.60;5.60;;;;;;;12.32;100.00;97562.63;110093;1244;58906;-64
2023/09/11 04:29:47;;;;;;;8.00;5.70;;;;;;;12.44;100.00;97559.11;110012;1244;70628;-65
2023/09/11 04:32:18;;;;;;;6.70;5.20;;;;;;;12.55;100.00;97562.64;109890;1244;69708;-65
2023/09/11 04:34:47;;;;;;;5.70;5.10;;;;;;;12.66;100.00;97561.92;109924;1245;68908;-65
2023/09/11 04:37:17;;;;;;;6.60;5.20;;;;;;;12.82;100.00;97562.61;109955;1245;59356;-65
2023/09/11 04:39:47;;;;;;;7.90;6.10;;;;;;;12.93;100.00;97562.92;110090;1245;58945;-65
2023/09/11 04:42:17;;;;;;;6.00;5.30;;;;;;;13.04;100.00;97564.34;110106;1245;70515;-65
2023/09/11 04:44:46;;;;;;;;;;;;;;;13.14;100.00;97565.31;110130;1245;69431;-65
2023/09/11 04:47:17;;;;;;;8.70;6.10;;;;;;;13.25;100.00;97559.28;110116;1245;69863;-65
2023/09/11 04:49:46;;;;;;;8.40;5.70;;;;;;;13.38;100.00;97560.92;110126;1244;58950;-65
2023/09/11 04:52:15;;;;;;;6.80;6.00;;;;;;;13.55;100.00;97558.80;110138;1245;58899;-65
2023/09/11 04:54:44;;;;;;;8.60;5.10;;;;;;;13.73;100.00;97560.76;110166;1245;70150;-65
2023/09/11 04:57:13;;;;;;;6.40;5.30;;;;;;;13.95;100.00;97561.39;110066;1245;69214;-65
2023/09/11 04:59:44;;;;;;;6.80;5.50;;;;;;;14.17;100.00;97561.09;110077;1245;69096;-65
2023/09/11 05:02:13;;;;;;;10.60;5.50;;;;;;;14.35;100.00;97562.36;110098;1247;59276;-65
2023/09/11 05:04:43;;;;;;;5.70;5.10;;;;;;;14.55;100.00;97559.15;110090;1245;58883;-66
2023/09/11 05:07:13;;;;;;;6.50;5.80;;;;;;;14.70;100.00;97555.86;110088;1245;70431;-65
2023/09/11 05:09:43;;;;;;;6.20;4.80;;;;;;;15.00;100.00;97558.13;109829;1245;69245;-65
2023/09/11 05:12:12;;;;;;;6.30;5.30;;;;;;;15.29;100.00;97555.20;109949;1242;69735;-65
2023/09/11 05:14:42;;;;;;;6.30;5.00;;;;;;;15.60;100.00;97551.95;110122;1245;58900;-65
2023/09/11 05:17:13;;;;;;;6.20;4.80;;;;;;;15.86;100.00;97550.64;110080;1245;58841;-65
2023/09/11 05:19:44;;;;;;;6.90;5.00;;;;;;;16.09;100.00;97547.73;110083;1243;70892;-65
2023/09/11 05:22:15;;;;;;;6.00;5.20;;;;;;;16.28;99.54;97549.99;110087;1245;69094;-65
2023/09/11 05:24:47;;;;;;;6.80;5.20;;;;;;;16.45;98.90;97547.87;110095;1246;69365;-66
2023/09/11 05:27:16;;;;;;;7.40;5.50;;;;;;;16.54;98.57;97545.42;110124;1245;58960;-65
2023/09/11 05:29:45;;;;;;;6.20;5.40;;;;;;;16.60;97.29;97546.80;110150;1243;58873;-66
2023/09/11 05:32:15;;;;;;;6.90;5.80;;;;;;;16.59;94.54;97547.31;110105;1246;71190;-66
2023/09/11 05:34:45;;;;;;;8.70;6.70;;;;;;;16.59;95.10;97550.13;110056;1242;69259;-65
2023/09/11 05:37:15;;;;;;;7.70;5.90;;;;;;;16.71;96.08;97548.61;110096;1245;70276;-65
2023/09/11 05:39:45;;;;;;;8.00;5.80;;;;;;;16.74;95.53;97554.32;110070;1242;59321;-64
2023/09/11 05:42:15;;;;;;;8.10;5.80;;;;;;;16.72;95.59;97554.12;110159;1245;58892;-67
2023/09/11 05:44:45;;;;;;;7.20;5.40;;;;;;;16.94;95.19;97552.92;110145;1241;70657;-65
2023/09/11 05:47:15;;;;;;;6.90;5.50;;;;;;;17.13;93.99;97552.36;110158;1245;69247;-65
2023/09/11 05:49:45;;;;;;;7.60;6.00;;;;;;;17.21;93.53;97552.11;110136;1245;70252;-65
2023/09/11 05:52:15;;;;;;;7.20;6.20;;;;;;;17.62;91.83;97550.20;110150;1246;58833;-66
2023/09/11 05:54:45;;;;;;;7.50;5.00;;;;;;;18.04;91.60;97542.80;110129;1245;59020;-65
2023/09/11 05:57:14;;;;;;;6.70;4.90;;;;;;;18.41;90.29;97546.41;110165;1242;70629;-65
2023/09/11 05:59:43;;;;;;;7.20;4.60;;;;;;;18.68;85.40;97542.01;110030;1245;68487;-65
2023/09/11 06:02:13;;;;;;;6.10;4.50;;;;;;;18.93;82.91;97547.39;110190;1243;69342;-65
2023/09/11 06:04:43;;;;;;;8.40;5.80;;;;;;;19.10;83.40;97546.50;109989;1246;58913;-65
2023/09/11 06:07:12;;;;;;;8.40;5.60;;;;;;;19.35;83.19;97545.84;110167;1244;58869;-65
2023/09/11 06:09:42;;;;;;;7.50;6.00;;;;;;;19.44;82.49;97541.17;110162;1243;71240;-63
2023/09/11 06:12:11;;;;;;;10.70;5.50;;;;;;;19.48;79.97;97545.45;110142;1244;69352;-65
2023/09/11 06:14:41;;;;;;;7.50;5.60;;;;;;;19.61;77.55;97541.31;110166;1244;69351;-63
2023/09/11 06:17:13;;;;;;;6.00;4.50;;;;;;;19.85;75.91;97545.92;110157;1245;58939;-64
2023/09/11 06:19:43;;;;;;;6.80;5.20;;;;;;;19.81;73.75;97547.09;109786;1247;58953;-65
2023/09/11 06:22:12;;;;;;;5.40;4.40;;;;;;;19.95;72.72;97552.28;110164;1243;70531;-65
2023/09/11 06:24:42;;;;;;;6.70;4.70;;;;;;;20.05;71.47;97555.43;110143;1246;68811;-65
2023/09/11 06:27:13;;;;;;;7.60;4.80;;;;;;;20.15;71.91;97557.98;110149;1243;67522;-66
2023/09/11 06:29:43;;;;;;;5.00;4.50;;;;;;;20.56;70.50;97561.23;110136;1245;58953;-64
2023/09/11 06:32:15;;;;;;;6.30;4.90;;;;;;;20.89;70.38;97563.42;110131;1246;58804;-66
2023/09/11 06:34:44;;;;;;;6.40;4.80;;;;;;;21.18;67.50;97564.42;110266;1244;69668;-65
2023/09/11 06:37:13;;;;;;;6.50;4.60;;;;;;;21.45;67.31;97563.48;110153;1243;68448;-67
2023/09/11 06:39:43;;;;;;;5.60;4.40;;;;;;;21.72;66.02;97564.47;110084;1246;69123;-65
2023/09/11 06:42:20;;;;;;;5.30;4.40;;;;;;;22.01;65.96;97563.92;110100;1244;58889;-65
2023/09/11 06:44:51;;;;;;;6.70;4.80;;;;;;;22.34;65.58;97564.11;110174;1246;58887;-66
2023/09/11 06:47:20;;;;;;;6.90;4.90;;;;;;;22.49;63.52;97562.77;110165;1244;70607;-66
2023/09/11 06:49:51;;;;;;;9.80;4.60;;;;;;;22.58;62.80;97564.95;110085;1245;69111;-66
2023/09/11 06:52:21;;;;;;;6.40;4.90;;;;;;;22.46;62.97;97563.95;110124;1246;69996;-67
2023/09/11 06:54:51;;;;;;;6.20;4.60;;;;;;;22.36;63.54;97565.98;110153;1245;58942;-68
2023/09/11 06:57:21;;;;;;;;;;;;;;;22.70;63.56;97569.05;110177;1245;58879;-66
2023/09/11 06:59:53;;;;;;;8.60;5.50;;;;;;;23.03;62.15;97568.28;110194;1245;71539;-66
2023/09/11 07:02:23;;;;;;;7.70;5.00;;;;;;;23.15;60.73;97569.33;110092;1246;69345;-66
2023/09/11 07:04:52;;;;;;;6.00;4.70;;;;;;;23.20;60.89;97570.38;109992;1251;69268;-66
2023/09/11 07:07:21;;;;;;;8.20;4.70;;;;;;;23.31;60.65;97570.41;110151;1244;58947;-65
2023/09/11 07:09:52;;;;;;;8.90;5.50;;;;;;;23.45;60.25;97567.73;110197;1245;58937;-66
2023/09/11 07:12:21;;;;;;;6.30;5.60;;;;;;;23.47;58.75;97570.70;110170;1245;69773;-66
2023/09/11 07:14:53;;;;;;;6.10;4.90;;;;;;;23.67;59.53;97568.92;110181;1245;68589;-67
2023/09/11 07:17:23;;;;;;;5.30;4.70;;;;;;;23.87;58.59;97564.85;110079;1245;69943;-67
2023/09/11 07:19:52;;;;;;;5.90;5.30;;;;;;;24.09;58.88;97563.67;110125;1245;58888;-67
2023/09/11 07:22:21;;;;;;;5.70;5.10;;;;;;;24.39;56.64;97559.85;110146;1244;58892;-67
2023/09/11 07:24:51;;;;;;;;;;;;;;;24.64;57.26;97563.46;110243;1245;70554;-67
2023/09/11 07:27:22;;;;;;;;;;;;;;;25.05;56.65;97561.42;110195;1245;69315;-67
2023/09/11 07:29:51;;;;;;;6.70;4.70;;;;;;;25.11;54.06;97561.08;110149;1241;69067;-67
2023/09/11 07:32:21;;;;;;;7.30;5.10;;;;;;;25.10;53.69;97560.42;110240;1246;58915;-67
2023/09/11 07:34:51;;;;;;;7.60;6.30;;;;;;;25.25;53.71;97561.92;110154;1246;58864;-67
2023/09/11 07:37:22;;;;;;;7.00;4.90;;;;;;;25.07;52.34;97558.93;110146;1241;70552;-66
2023/09/11 07:39:51;;;;;;;5.10;4.50;;;;;;;24.88;53.75;97560.42;110154;1241;68519;-66
2023/09/11 07:42:20;;;;;;;6.20;5.00;;;;;;;24.84;53.97;97558.59;110226;1245;68529;-67
2023/09/11 07:44:51;;;;;;;7.20;6.10;;;;;;;25.10;53.80;97560.62;110237;1245;58950;-66
2023/09/11 07:47:20;;;;;;;6.90;4.90;;;;;;;25.29;51.57;97562.66;110192;1243;58886;-66
2023/09/11 07:49:49;;;;;;;7.60;5.20;;;;;;;25.30;52.08;97562.77;110122;1241;69838;-66
2023/09/11 07:52:18;;;;;;;5.60;4.80;;;;;;;25.57;51.83;97564.31;110187;1244;69249;-66
2023/09/11 07:54:47;;;;;;;;;;;;;;;25.55;51.66;97562.95;110143;1246;69758;-67
2023/09/11 07:57:17;;;;;;;6.80;4.90;;;;;;;25.66;51.34;97564.13;110138;1245;58983;-66
2023/09/11 07:59:47;;;;;;;6.10;5.30;;;;;;;26.18;50.01;97564.14;110107;1245;58828;-65
2023/09/11 08:02:16;;;;;;;7.00;5.00;;;;;;;26.30;49.77;97566.53;109822;1244;491118;-66
2023/09/11 08:04:46;;;;;;;9.10;5.80;;;;;;;26.49;48.88;97564.33;110190;1245;70101;-66
2023/09/11 08:07:14;;;;;;;;;;;;;;;26.69;48.93;97564.52;110200;1251;69839;-67
2023/09/11 08:09:46;;;;;;;5.40;4.40;;;;;;;27.10;48.19;97562.29;110162;1246;58908;-67
2023/09/11 08:12:16;;;;;;;7.20;5.10;;;;;;;27.69;47.94;97560.48;110199;1244;58867;-66
2023/09/11 08:14:45;;;;;;;6.80;5.80;;;;;;;27.49;46.42;97553.27;110139;1245;71038;-66
2023/09/11 08:17:14;;;;;;;6.90;5.20;;;;;;;27.47;46.61;97550.14;110094;1244;68665;-66
2023/09/11 08:19:44;;;;;;;5.70;4.80;;;;;;;27.92;46.31;97545.33;110095;1246;69316;-66
2023/09/11 08:22:13;;;;;;;5.90;5.00;;;;;;;28.10;45.56;97540.51;110148;1245;58881;-66
2023/09/11 08:24:42;;;;;;;5.90;5.30;;;;;;;28.64;45.19;97539.73;110197;1246;58871;-67
2023/09/11 08:27:12;;;;;;;5.50;4.50;;;;;;;28.85;43.93;97539.45;110175;1251;71025;-66
2023/09/11 08:29:41;;;;;;;5.20;4.70;;;;;;;29.17;43.50;97534.44;110157;1243;68473;-67
2023/09/11 08:32:11;;;;;;;5.60;4.90;;;;;;;29.36;42.80;97539.48;110143;1241;68870;-67
2023/09/11 08:34:41;;;;;;;4.80;4.20;;;;;;;29.45;42.72;97535.46;110129;1246;59192;-67
2023/09/11 08:37:10;;;;;;;6.70;4.70;;;;;;;29.58;41.48;97535.50;110175;1246;58881;-68
2023/09/11 08:39:40;;;;;;;5.80;5.00;;;;;;;29.63;40.63;97536.91;110224;1241;70611;-67
2023/09/11 08:42:10;;;;;;;5.50;4.80;;;;;;;29.83;40.72;97534.89;110153;1244;69691;-66
2023/09/11 08:44:39;;;;;;;5.60;5.10;;;;;;;29.87;41.19;97533.66;110170;1251;69881;-69
2023/09/11 08:47:09;;;;;;;5.30;4.50;;;;;;;30.07;40.43;97533.67;110176;1243;58940;-67
2023/09/11 08:49:52;;;;;;;5.60;4.90;;;;;;;30.36;40.19;97537.43;110197;1245;58940;-66
2023/09/11 08:52:22;;;;;;;5.20;4.40;;;;;;;30.77;39.81;97537.77;110172;1244;70753;-65
2023/09/11 08:54:55;;;;;;;6.80;5.60;;;;;;;31.04;39.68;97536.84;110167;1246;69716;-66
2023/09/11 08:57:26;;;;;;;5.70;4.10;;;;;;;31.37;38.95;97537.67;110154;1244;69833;-67
2023/09/11 09:00:04;;;;;;;6.30;5.60;;;;;;;31.32;38.21;97534.81;110134;1246;58937;-65
2023/09/11 09:02:34;;;;;;;6.70;5.80;;;;;;;31.01;38.32;97533.71;110200;1243;58951;-64
2023/09/11 09:05:05;;;;;;;5.40;4.90;;;;;;;30.23;39.10;97529.61;110161;1245;70662;-66
2023/09/11 09:07:35;;;;;;;6.30;5.20;;;;;;;30.33;39.73;97524.66;110226;1244;69240;-64
2023/09/11 09:10:06;;;;;;;5.40;4.90;;;;;;;30.65;38.96;97521.50;110189;1245;69347;-65
2023/09/11 09:12:35;;;;;;;7.60;6.00;;;;;;;31.05;38.83;97522.38;110261;1244;58930;-66
2023/09/11 09:15:05;;;;;;;6.00;4.80;;;;;;;31.25;38.39;97519.02;110203;1244;58882;-66
2023/09/11 09:17:34;;;;;;;6.80;5.20;;;;;;;31.68;37.98;97518.61;110219;1246;71272;-66
2023/09/11 09:20:05;;;;;;;5.90;5.20;;;;;;;31.92;36.48;97518.66;110182;1241;69415;-65
2023/09/11 09:22:34;;;;;;;5.90;5.30;;;;;;;32.23;36.68;97514.49;110150;1245;69894;-65
2023/09/11 09:25:03;;;;;;;6.70;5.50;;;;;;;32.16;35.66;97512.50;110175;1245;58968;-67
2023/09/11 09:27:35;;;;;;;5.40;4.90;;;;;;;31.74;36.78;97512.89;110168;1245;58889;-65
2023/09/11 09:30:18;;;;;;;5.90;5.10;;;;;;;31.53;37.06;97514.56;110201;1244;70548;-65
2023/09/11 09:32:49;;;;;;;6.20;4.60;;;;;;;30.81;37.66;97510.87;110175;1244;70218;-66
2023/09/11 09:35:33;;;;;;;6.20;4.80;;;;;;;30.82;36.99;97507.04;110145;1245;69827;-65
2023/09/11 09:38:03;;;;;;;4.90;4.40;;;;;;;31.12;37.80;97502.02;110131;1244;58886;-65
2023/09/11 09:40:33;;;;;;;4.10;3.70;;;;;;;32.30;37.10;97496.44;110179;1242;58877;-66
2023/09/11 09:43:04;;;;;;;4.60;4.20;;;;;;;32.62;36.24;97489.76;110137;1245;69696;-66
2023/09/11 09:45:38;;;;;;;4.90;4.30;;;;;;;32.94;35.47;97489.99;110166;1245;69231;-66
2023/09/11 09:48:16;;;;;;;5.00;4.50;;;;;;;33.03;35.07;97483.88;110172;1245;70180;-65
2023/09/11 09:50:51;;;;;;;4.50;4.10;;;;;;;33.46;33.72;97481.42;110144;1243;58960;-65
2023/09/11 09:53:34;;;;;;;5.90;5.30;;;;;;;32.52;33.28;97480.38;110158;1244;58879;-65
2023/09/11 09:56:07;;;;;;;6.60;5.10;;;;;;;32.79;33.41;97480.39;110159;1241;70316;-65
2023/09/11 09:58:39;;;;;;;5.50;4.60;;;;;;;32.42;33.49;97474.15;109989;1246;68853;-65
2023/09/11 10:01:12;;;;;;;6.30;4.80;;;;;;;33.03;34.01;97472.71;110144;1245;69297;-64
2023/09/11 10:03:48;;;;;;;5.60;4.60;;;;;;;33.58;33.83;97471.99;110179;1244;58863;-65
2023/09/11 10:06:26;;;;;;;5.10;4.60;;;;;;;34.15;33.13;97467.90;110177;1241;58937;-66
2023/09/11 10:09:13;;;;;;;6.60;5.90;;;;;;;34.49;32.38;97461.09;110136;1245;69900;-65
2023/09/11 10:11:44;;;;;;;5.30;4.40;;;;;;;34.57;31.49;97463.20;110112;1241;69660;-66
2023/09/11 10:14:13;;;;;;;7.00;5.40;;;;;;;34.60;31.82;97458.31;110137;1243;69402;-65
2023/09/11 10:16:43;;;;;;;5.90;5.30;;;;;;;34.29;30.47;97455.90;110137;1245;58919;-65
2023/09/11 10:19:13;;;;;;;5.70;4.60;;;;;;;32.98;31.89;97451.73;110158;1241;58866;-65
2023/09/11 10:21:41;;;;;;;5.70;5.20;;;;;;;32.40;33.08;97448.91;110144;1244;71105;-65
2023/09/11 10:24:11;;;;;;;5.30;4.80;;;;;;;33.20;33.44;97447.70;109810;1241;69437;-64
2023/09/11 10:26:58;;;;;;;4.90;4.10;;;;;;;33.70;32.20;97447.98;110096;1241;68920;-65
2023/09/11 10:29:43;;;;;;;5.90;4.60;;;;;;;33.25;32.77;97443.72;110115;1243;58971;-65
2023/09/11 10:32:22;;;;;;;6.80;5.90;;;;;;;33.88;31.54;97439.02;110130;1243;58944;-65
2023/09/11 10:34:52;;;;;;;7.20;5.10;;;;;;;32.94;32.55;97438.95;110148;1245;70770;-66
2023/09/11 10:37:24;;;;;;;5.70;5.00;;;;;;;33.33;32.64;97437.57;110137;1241;68299;-65
2023/09/11 10:39:54;;;;;;;5.80;5.20;;;;;;;33.74;32.22;97428.71;110129;1242;69864;-66
2023/09/11 10:42:23;;;;;;;9.20;4.80;;;;;;;34.03;31.53;97431.47;110162;1243;58834;-66
2023/09/11 10:44:53;;;;;;;6.80;4.50;;;;;;;34.01;31.39;97424.97;110127;1243;58867;-65
2023/09/11 10:47:22;;;;;;;6.00;4.80;;;;;;;34.69;30.63;97425.46;110129;1251;69693;-64
2023/09/11 10:49:57;;;;;;;6.00;4.90;;;;;;;34.68;30.93;97421.69;110143;1241;69222;-65
2023/09/11 10:52:26;;;;;;;6.10;5.20;;;;;;;35.19;29.84;97421.36;110130;1241;69893;-65
2023/09/11 10:54:56;;;;;;;5.90;4.50;;;;;;;34.99;30.08;97420.95;110125;1245;58969;-65
2023/09/11 10:57:25;;;;;;;5.10;3.50;;;;;;;35.33;29.74;97421.11;110141;1244;58884;-65
2023/09/11 10:59:54;;;;;;;3.90;2.80;;;;;;;36.04;29.08;97412.99;110125;1244;70035;-65
2023/09/11 11:02:24;;;;;;;4.00;3.30;;;;;;;36.57;28.16;97411.29;110137;1243;69833;-64
2023/09/11 11:04:53;;;;;;;3.60;2.90;;;;;;;36.63;27.82;97408.43;110091;1245;69900;-64
2023/09/11 11:07:23;;;;;;;5.10;4.10;;;;;;;36.53;26.66;97410.66;110155;1244;58867;-64
2023/09/11 11:09:53;;;;;;;4.10;3.10;;;;;;;36.39;27.00;97407.77;110147;1246;58855;-65
2023/09/11 11:12:33;;;;;;;4.10;3.30;;;;;;;36.83;27.57;97408.66;110166;1243;71623;-64
2023/09/11 11:15:24;;;;;;;3.50;3.20;;;;;;;37.63;27.96;97409.02;110147;1245;69884;-64
2023/09/11 11:18:12;;;;;;;4.00;3.00;;;;;;;37.75;26.13;97403.09;110166;1244;69889;-66
2023/09/11 11:20:59;;;;;;;5.10;3.20;;;;;;;38.05;26.71;97404.56;110147;1243;59297;-65
2023/09/11 11:23:34;;;;;;;4.40;3.50;;;;;;;37.55;26.12;97397.28;110129;1244;58886;-65
2023/09/11 11:26:07;;;;;;;4.30;3.10;;;;;;;37.33;27.51;97396.27;110137;1241;70873;-65
2023/09/11 11:28:41;;;;;;;4.40;3.30;;;;;;;37.56;26.68;97392.77;110163;1244;69816;-65
2023/09/11 11:31:19;;;;;;;3.90;2.80;;;;;;;37.78;26.66;97389.98;110119;1244;69345;-65
2023/09/11 11:33:51;;;;;;;6.60;3.70;;;;;;;37.22;27.23;97389.66;110119;1244;58963;-66
2023/09/11 11:36:20;;;;;;;5.50;4.10;;;;;;;36.92;27.32;97387.55;110143;1245;58920;-65
2023/09/11 11:38:56;;;;;;;4.00;3.60;;;;;;;37.14;27.21;97384.58;110139;1243;70545;-65
2023/09/11 11:41:25;;;;;;;4.50;3.10;;;;;;;37.84;27.57;97379.11;110199;1241;69281;-64
2023/09/11 11:43:56;;;;;;;4.70;3.10;;;;;;;37.94;26.98;97370.23;110137;1241;68782;-64
2023/09/11 11:46:29;;;;;;;7.60;4.00;;;;;;;37.98;26.17;97369.71;110186;1244;58983;-64
2023/09/11 11:48:58;;;;;;;5.10;3.50;;;;;;;37.90;27.25;97368.92;110161;1245;58895;-65